Saint Charles, Michigan
Current Conditions -  °F | °C
As of 2:11 PM on Tuesday 21 Oct 2014 (Local Time) from KMBS Reporting Station
Light Rain Light Rain  
Wind Chill:   Ceiling: 3000
Heat Index:   Visibility: 10mi
Dew Point:   Wind: 16mph
Humidity: 58%   Direction: 360°N
Pressure: 30.14"   Gusts: NA
Location:  43.3°N, 84.14°W
Report Text: KMBS 211811Z 36014KT 10SM -RA OVC030 09/01 A3014 RMK AO2 P0000 T00890011
Loading
Personal Weather Stations






























Interactive Weather Map
Tropical Storm Tracking
New forecast layout! Learn more

10-Day Weather Forecast

Advertisements
Track Severe Weather on mobile